Time;durP1;ratioP1;P1;durP2;ratioP2;P2;SDS_P1;SDS_P2;PMS_P1;PMS_P2;Temp;Humidity;BMP_temperature;BMP_pressure;BME280_temperature;BME280_humidity;BME280_pressure;Samples;Min_cycle;Max_cycle;Signal;HPM_P1;HPM_P2
2024/01/10 00:02:20;;;;;;;32.72;14.55;;;-4.40;99.90;;;;;;5028499;28;20117;-76
2024/01/10 00:04:46;;;;;;;27.85;13.70;;;-4.50;99.90;;;;;;5011903;28;20129;-77
2024/01/10 00:07:13;;;;;;;25.50;13.82;;;-4.40;99.90;;;;;;5021664;28;20041;-76
2024/01/10 00:09:40;;;;;;;28.92;14.75;;;-4.50;99.90;;;;;;5024153;28;20085;-76
2024/01/10 00:12:06;;;;;;;30.40;14.85;;;-4.50;99.90;;;;;;4995701;28;20042;-76
2024/01/10 00:14:33;;;;;;;26.42;13.90;;;-4.50;99.90;;;;;;4991180;28;20034;-76
2024/01/10 00:17:00;;;;;;;27.45;13.60;;;-4.60;99.90;;;;;;5025998;28;20427;-76
2024/01/10 00:19:26;;;;;;;27.45;12.90;;;-4.60;99.90;;;;;;5011416;28;20121;-76
2024/01/10 00:21:53;;;;;;;27.73;14.23;;;-4.60;99.90;;;;;;5004817;28;20650;-76
2024/01/10 00:24:20;;;;;;;29.13;14.68;;;-4.50;99.90;;;;;;4995369;28;20042;-77
2024/01/10 00:26:46;;;;;;;29.63;15.10;;;-4.50;99.90;;;;;;4995442;28;20041;-77
2024/01/10 00:29:13;;;;;;;27.45;13.55;;;-4.50;99.90;;;;;;4995161;28;20479;-76
2024/01/10 00:31:40;;;;;;;31.42;14.13;;;-4.50;99.90;;;;;;4983311;28;20039;-77
2024/01/10 00:34:06;;;;;;;32.35;14.73;;;-4.50;99.90;;;;;;5010237;28;20459;-76
2024/01/10 00:36:33;;;;;;;28.88;13.38;;;-4.50;99.90;;;;;;4995256;28;20069;-76
2024/01/10 00:39:00;;;;;;;28.80;13.05;;;-4.50;99.90;;;;;;5024982;28;20042;-76
2024/01/10 00:41:26;;;;;;;28.77;12.80;;;-4.50;99.90;;;;;;5011155;28;20115;-77
2024/01/10 00:43:53;;;;;;;27.67;13.15;;;-4.50;99.90;;;;;;5004482;28;20042;-76
2024/01/10 00:46:20;;;;;;;26.15;12.80;;;-4.50;99.90;;;;;;5001079;28;20034;-76
2024/01/10 00:48:47;;;;;;;24.40;12.18;;;-4.50;99.90;;;;;;4998650;28;20108;-76
2024/01/10 00:51:13;;;;;;;27.52;13.23;;;-4.50;99.90;;;;;;5016732;28;20058;-76
2024/01/10 00:53:40;;;;;;;26.70;12.70;;;-3.90;99.90;;;;;;4994834;28;20035;-76
2024/01/10 00:56:07;;;;;;;25.85;12.57;;;-4.50;99.90;;;;;;5001934;28;20060;-76
2024/01/10 00:58:33;;;;;;;26.13;12.07;;;-4.50;99.90;;;;;;5003877;28;20122;-76
2024/01/10 01:01:00;;;;;;;23.60;11.35;;;-4.60;99.90;;;;;;5010150;28;20042;-76
2024/01/10 01:03:27;;;;;;;25.10;13.02;;;-4.60;99.90;;;;;;4989321;28;20101;-76
2024/01/10 01:05:54;;;;;;;27.20;12.93;;;-4.60;99.90;;;;;;4992025;28;20077;-76
2024/01/10 01:08:20;;;;;;;27.65;13.05;;;-4.60;99.90;;;;;;5010536;28;20038;-76
2024/01/10 01:10:47;;;;;;;23.75;12.43;;;-4.60;99.90;;;;;;5007717;28;20057;-76
2024/01/10 01:13:13;;;;;;;23.73;12.57;;;-4.60;99.90;;;;;;5000876;28;20102;-76
2024/01/10 01:15:40;;;;;;;25.83;12.02;;;-4.70;99.90;;;;;;4995475;28;20053;-76
2024/01/10 01:18:07;;;;;;;25.77;13.27;;;-4.70;99.90;;;;;;4994932;28;20038;-76
2024/01/10 01:20:33;;;;;;;23.50;11.75;;;-4.10;99.90;;;;;;5021367;28;20076;-77
2024/01/10 01:23:00;;;;;;;26.67;13.82;;;-4.70;99.90;;;;;;5010949;28;20583;-76
2024/01/10 01:25:27;;;;;;;24.95;13.30;;;-4.80;99.90;;;;;;4994518;28;20119;-76
2024/01/10 01:27:56;;;;;;;28.35;14.27;;;-4.80;99.90;;;;;;4994408;28;20050;-76
2024/01/10 01:30:23;;;;;;;26.67;13.90;;;-4.90;99.90;;;;;;4996219;28;20046;-76
2024/01/10 01:32:49;;;;;;;31.95;14.00;;;-4.90;99.90;;;;;;5005872;28;20042;-76
2024/01/10 01:35:21;;;;;;;29.98;13.43;;;-4.90;99.90;;;;;;4990455;28;20044;-76
2024/01/10 01:37:48;;;;;;;28.85;13.35;;;-4.90;99.90;;;;;;4984827;28;20050;-76
2024/01/10 01:40:15;;;;;;;27.17;13.60;;;-4.90;99.90;;;;;;4994169;28;20049;-76
2024/01/10 01:42:45;;;;;;;26.10;13.80;;;-4.90;99.90;;;;;;4994875;28;20038;-76
2024/01/10 01:45:12;;;;;;;28.02;13.55;;;-4.90;99.90;;;;;;4996127;28;20042;-76
2024/01/10 01:47:39;;;;;;;32.00;14.60;;;-4.90;99.90;;;;;;5014835;28;20034;-76
2024/01/10 01:50:07;;;;;;;26.58;13.90;;;-4.90;99.90;;;;;;5004716;28;20055;-76
2024/01/10 01:52:34;;;;;;;29.48;13.82;;;-4.90;99.90;;;;;;5009314;28;20097;-76
2024/01/10 01:55:02;;;;;;;26.92;13.60;;;-4.90;99.90;;;;;;5011155;28;20085;-76
2024/01/10 01:57:29;;;;;;;28.48;13.57;;;-4.40;99.90;;;;;;5000475;28;20066;-76
2024/01/10 01:59:56;;;;;;;29.60;14.98;;;-4.90;99.90;;;;;;4983442;28;20079;-76
2024/01/10 02:02:24;;;;;;;29.88;14.02;;;-4.90;99.90;;;;;;5003134;28;20122;-76
2024/01/10 02:04:50;;;;;;;31.98;14.93;;;-4.90;99.90;;;;;;5019913;28;20412;-77
2024/01/10 02:07:17;;;;;;;29.05;14.10;;;-4.90;99.90;;;;;;4998975;28;20047;-76
2024/01/10 02:09:44;;;;;;;32.90;14.45;;;-4.90;99.90;;;;;;4987652;28;20112;-76
2024/01/10 02:12:10;;;;;;;28.10;14.70;;;-4.90;99.90;;;;;;5000523;28;20047;-76
2024/01/10 02:14:37;;;;;;;29.17;14.45;;;-4.80;99.90;;;;;;5001087;28;20125;-76
2024/01/10 02:17:04;;;;;;;29.75;14.98;;;-4.80;99.90;;;;;;5008658;28;20043;-76
2024/01/10 02:19:32;;;;;;;32.20;15.10;;;-4.80;99.90;;;;;;5010562;28;20034;-76
2024/01/10 02:21:58;;;;;;;30.00;14.73;;;-4.80;99.90;;;;;;5013817;28;20043;-76
2024/01/10 02:24:25;;;;;;;31.27;15.07;;;-4.90;99.90;;;;;;5023200;28;20102;-76
2024/01/10 02:26:52;;;;;;;33.38;15.35;;;-4.80;99.90;;;;;;5010242;28;20081;-76
2024/01/10 02:29:19;;;;;;;32.05;15.68;;;-4.80;99.90;;;;;;5018816;28;20043;-76
2024/01/10 02:31:46;;;;;;;33.67;15.63;;;-4.80;99.90;;;;;;5028046;28;20034;-76
2024/01/10 02:34:12;;;;;;;30.77;15.48;;;-4.80;99.90;;;;;;5001592;28;20125;-76
2024/01/10 02:36:39;;;;;;;30.95;15.80;;;-4.80;99.90;;;;;;5023644;28;20045;-76
2024/01/10 02:39:06;;;;;;;31.08;16.20;;;-4.80;99.90;;;;;;5004768;28;20046;-76
2024/01/10 02:41:33;;;;;;;27.92;14.43;;;-4.80;99.90;;;;;;5009954;28;20513;-76
2024/01/10 02:43:59;;;;;;;28.48;14.20;;;-4.90;99.90;;;;;;5004985;28;20082;-76
2024/01/10 02:46:29;;;;;;;28.88;14.73;;;-4.90;99.90;;;;;;5032966;28;20053;-76
2024/01/10 02:48:55;;;;;;;32.00;15.70;;;-4.90;99.90;;;;;;5005238;28;20061;-76
2024/01/10 02:51:23;;;;;;;32.15;15.15;;;-4.90;99.90;;;;;;5000312;28;20520;-77
2024/01/10 02:53:50;;;;;;;28.98;14.80;;;-4.90;99.90;;;;;;5006982;28;20070;-76
2024/01/10 02:56:16;;;;;;;32.58;15.63;;;-4.90;99.90;;;;;;5014520;28;20070;-76
2024/01/10 02:58:43;;;;;;;26.63;14.43;;;-4.90;99.90;;;;;;4993778;28;20070;-76
2024/01/10 03:01:10;;;;;;;30.23;14.65;;;-4.90;99.90;;;;;;4996851;28;20034;-76
2024/01/10 03:03:36;;;;;;;26.88;14.50;;;-4.90;99.90;;;;;;5011060;28;20042;-76
2024/01/10 03:06:03;;;;;;;29.52;14.00;;;-4.90;99.90;;;;;;5013188;28;20046;-76
2024/01/10 03:08:29;;;;;;;33.85;14.20;;;-5.00;99.90;;;;;;5020278;28;20121;-76
2024/01/10 03:10:56;;;;;;;33.13;14.40;;;-5.00;99.90;;;;;;5007743;28;20038;-76
2024/01/10 03:13:23;;;;;;;29.45;14.55;;;-5.00;99.90;;;;;;5010924;28;20112;-76
2024/01/10 03:15:49;;;;;;;32.60;14.98;;;-5.00;99.90;;;;;;5015095;28;20080;-76
2024/01/10 03:18:16;;;;;;;30.60;14.88;;;-5.00;99.90;;;;;;5006780;28;20052;-76
2024/01/10 03:20:42;;;;;;;27.98;14.00;;;-5.00;99.90;;;;;;5012774;28;20049;-76
2024/01/10 03:23:09;;;;;;;30.60;14.18;;;-5.00;99.90;;;;;;5019218;28;20100;-76
2024/01/10 03:25:36;;;;;;;31.23;14.98;;;-5.00;99.90;;;;;;5013307;28;20037;-77
2024/01/10 03:28:02;;;;;;;28.15;14.77;;;-5.10;99.90;;;;;;4996624;28;20085;-76
2024/01/10 03:30:29;;;;;;;29.23;14.27;;;-5.10;99.90;;;;;;5014577;28;20050;-76
2024/01/10 03:32:56;;;;;;;29.33;14.60;;;-5.00;99.90;;;;;;5022740;28;20085;-76
2024/01/10 03:35:22;;;;;;;32.25;15.05;;;-5.10;99.90;;;;;;4979760;28;20046;-76
2024/01/10 03:37:49;;;;;;;30.17;14.55;;;-5.00;99.90;;;;;;5017571;28;20042;-76
2024/01/10 03:40:16;;;;;;;26.77;13.52;;;-5.00;99.90;;;;;;5014266;28;20468;-76
2024/01/10 03:42:42;;;;;;;30.95;13.68;;;-5.00;99.90;;;;;;4995649;28;20050;-76
2024/01/10 03:45:10;;;;;;;25.85;13.90;;;-5.00;99.90;;;;;;4983049;28;20038;-76
2024/01/10 03:47:37;;;;;;;27.05;14.45;;;-4.50;99.90;;;;;;5017249;28;20046;-76
2024/01/10 03:50:04;;;;;;;27.83;13.60;;;-5.00;99.90;;;;;;4996014;28;20050;-76
2024/01/10 03:52:30;;;;;;;30.25;13.73;;;-5.00;99.90;;;;;;5035535;28;20061;-76
2024/01/10 03:54:57;;;;;;;29.75;14.02;;;-4.90;99.90;;;;;;5010591;28;20124;-76
2024/01/10 03:57:24;;;;;;;28.70;14.50;;;-5.00;99.90;;;;;;5022731;28;20030;-76
2024/01/10 03:59:50;;;;;;;31.17;14.27;;;-5.00;99.90;;;;;;5012277;28;20053;-76
2024/01/10 04:02:17;;;;;;;28.95;14.30;;;-5.00;99.90;;;;;;5007935;28;20615;-76
2024/01/10 04:04:43;;;;;;;28.67;14.02;;;-4.90;99.90;;;;;;5015491;28;20080;-76
2024/01/10 04:07:10;;;;;;;32.03;14.30;;;-5.00;99.90;;;;;;4995704;28;20042;-76
2024/01/10 04:09:37;;;;;;;25.70;13.88;;;-5.00;99.90;;;;;;5000498;28;20073;-76
2024/01/10 04:12:04;;;;;;;27.00;14.20;;;-3.60;99.90;;;;;;4986634;28;20051;-76
2024/01/10 04:14:30;;;;;;;28.13;13.57;;;-5.00;99.90;;;;;;4999039;28;20065;-76
2024/01/10 04:16:57;;;;;;;30.38;15.07;;;-5.00;99.90;;;;;;5014386;28;20054;-76
2024/01/10 04:19:23;;;;;;;30.30;14.38;;;-5.00;99.90;;;;;;4998150;28;20127;-76
2024/01/10 04:21:50;;;;;;;27.60;13.65;;;-5.00;99.90;;;;;;5002684;28;20038;-76
2024/01/10 04:24:17;;;;;;;28.60;14.10;;;-5.00;99.90;;;;;;5027597;28;20038;-76
2024/01/10 04:26:43;;;;;;;28.48;14.00;;;-5.10;99.90;;;;;;5027860;28;20046;-76
2024/01/10 04:29:10;;;;;;;28.50;14.07;;;-5.10;99.90;;;;;;4992789;28;20517;-76
2024/01/10 04:31:37;;;;;;;27.83;13.52;;;-5.10;99.90;;;;;;5035452;28;20050;-76
2024/01/10 04:34:03;;;;;;;26.52;13.48;;;-5.10;99.90;;;;;;5008519;28;20073;-76
2024/01/10 04:36:31;;;;;;;24.75;13.00;;;-5.20;99.90;;;;;;5010356;28;20046;-76
2024/01/10 04:38:57;;;;;;;28.80;14.40;;;-5.20;99.90;;;;;;5018350;28;20064;-76
2024/01/10 04:41:25;;;;;;;23.88;13.48;;;-5.20;99.90;;;;;;5011226;28;20038;-76
2024/01/10 04:43:51;;;;;;;27.25;14.60;;;-5.20;99.90;;;;;;5017190;28;20073;-76
2024/01/10 04:46:18;;;;;;;27.45;13.52;;;-5.20;99.90;;;;;;5012839;28;20133;-76
2024/01/10 04:48:45;;;;;;;26.52;13.95;;;-5.10;99.90;;;;;;5023088;28;20093;-76
2024/01/10 04:51:11;;;;;;;27.25;13.05;;;-5.10;99.90;;;;;;5011434;28;20467;-76
2024/01/10 04:53:38;;;;;;;29.02;14.00;;;-5.20;99.90;;;;;;4995077;28;20379;-76
2024/01/10 04:56:05;;;;;;;27.27;14.23;;;-5.20;99.90;;;;;;4984945;28;20423;-77
2024/01/10 04:58:32;;;;;;;26.25;13.70;;;-5.10;99.90;;;;;;4994564;28;20129;-76
2024/01/10 05:00:59;;;;;;;30.33;14.70;;;-5.20;99.90;;;;;;5007468;28;20039;-76
2024/01/10 05:03:26;;;;;;;27.52;14.63;;;-5.20;99.90;;;;;;5021547;28;20828;-76
2024/01/10 05:05:52;;;;;;;27.98;13.48;;;-5.20;99.90;;;;;;4999300;28;20042;-76
2024/01/10 05:08:20;;;;;;;26.05;13.50;;;-5.20;99.90;;;;;;5011026;28;20050;-76
2024/01/10 05:10:46;;;;;;;35.35;14.55;;;-5.20;99.90;;;;;;5010600;28;20118;-76
2024/01/10 05:13:13;;;;;;;30.10;14.02;;;-5.20;99.90;;;;;;5016158;28;20815;-76
2024/01/10 05:15:40;;;;;;;30.70;14.77;;;-5.20;99.90;;;;;;4994583;28;20038;-77
2024/01/10 05:18:06;;;;;;;28.23;13.95;;;-5.20;99.90;;;;;;5003753;28;20050;-76
2024/01/10 05:20:33;;;;;;;29.08;15.25;;;-5.20;99.90;;;;;;5023293;28;20057;-76
2024/01/10 05:23:01;;;;;;;26.40;12.88;;;-5.20;99.90;;;;;;4995516;28;20053;-76
2024/01/10 05:25:29;;;;;;;25.70;14.05;;;-5.30;99.90;;;;;;5024015;28;20039;-76
2024/01/10 05:27:55;;;;;;;26.50;13.63;;;-5.20;99.90;;;;;;4999295;28;20504;-77
2024/01/10 05:30:22;;;;;;;26.98;14.30;;;-5.20;99.90;;;;;;5008448;28;20046;-76
2024/01/10 05:32:49;;;;;;;28.35;14.73;;;-5.10;99.90;;;;;;5021993;28;20089;-77
2024/01/10 05:35:15;;;;;;;29.23;14.40;;;-5.10;99.90;;;;;;4994716;28;20101;-76
2024/01/10 05:37:42;;;;;;;26.02;14.00;;;-5.10;99.90;;;;;;5000476;28;20087;-76
2024/01/10 05:40:10;;;;;;;30.02;14.70;;;-5.20;99.90;;;;;;5000190;28;20415;-77
2024/01/10 05:42:37;;;;;;;28.38;14.82;;;-5.20;99.90;;;;;;4994574;28;20042;-76
2024/01/10 05:45:05;;;;;;;30.55;14.75;;;-5.20;99.90;;;;;;5001034;28;20394;-76
2024/01/10 05:47:32;;;;;;;29.02;14.98;;;-5.20;99.90;;;;;;5003731;28;20034;-76
2024/01/10 05:49:59;;;;;;;33.38;14.82;;;-5.20;99.90;;;;;;5036237;28;20057;-77
2024/01/10 05:52:25;;;;;;;28.55;14.15;;;-5.20;99.90;;;;;;4998377;28;20046;-76
2024/01/10 05:54:53;;;;;;;30.05;15.02;;;-5.20;99.90;;;;;;5014930;28;20044;-76
2024/01/10 05:57:21;;;;;;;28.42;15.60;;;-5.20;99.90;;;;;;5006646;28;20045;-76
2024/01/10 05:59:47;;;;;;;28.13;14.25;;;-5.10;99.90;;;;;;5011752;28;20042;-76
2024/01/10 06:02:16;;;;;;;29.23;14.95;;;-5.20;99.90;;;;;;5006801;28;20101;-76
2024/01/10 06:04:43;;;;;;;31.48;15.15;;;-5.10;99.90;;;;;;4995820;28;20038;-76
2024/01/10 06:07:10;;;;;;;29.58;16.20;;;-5.20;99.90;;;;;;5014001;28;20046;-76
2024/01/10 06:09:36;;;;;;;32.53;14.77;;;-5.10;99.90;;;;;;4998136;28;20053;-76
2024/01/10 06:12:03;;;;;;;30.05;14.77;;;-5.10;99.90;;;;;;5005240;28;20033;-77
2024/01/10 06:14:31;;;;;;;33.88;15.98;;;-5.10;99.90;;;;;;5018675;28;20474;-76
2024/01/10 06:16:59;;;;;;;32.50;15.98;;;-5.10;99.90;;;;;;5022326;28;20109;-77
2024/01/10 06:19:26;;;;;;;32.58;15.68;;;-5.10;99.90;;;;;;4993251;28;20035;-77
2024/01/10 06:21:52;;;;;;;32.92;15.50;;;-5.10;99.90;;;;;;5028922;28;20046;-76
2024/01/10 06:24:19;;;;;;;35.58;16.48;;;-5.10;99.90;;;;;;5010555;28;20421;-77
2024/01/10 06:26:45;;;;;;;27.70;14.90;;;-5.20;99.90;;;;;;4997406;28;20046;-77
2024/01/10 06:29:12;;;;;;;34.30;15.88;;;-5.20;99.90;;;;;;4997778;28;20049;-77
2024/01/10 06:31:38;;;;;;;30.65;16.85;;;-5.20;99.90;;;;;;5013175;28;20042;-77
2024/01/10 06:34:05;;;;;;;33.72;16.20;;;-5.20;99.90;;;;;;4997078;28;20129;-77
2024/01/10 06:36:32;;;;;;;34.92;16.42;;;-5.20;99.90;;;;;;5008041;28;20042;-76
2024/01/10 06:38:58;;;;;;;33.65;15.73;;;-5.20;99.90;;;;;;5010238;28;20133;-77
2024/01/10 06:41:25;;;;;;;31.02;15.35;;;-5.30;99.90;;;;;;5023817;28;20033;-77
2024/01/10 06:43:52;;;;;;;34.00;15.57;;;-5.30;99.90;;;;;;4984652;28;20518;-76
2024/01/10 06:46:20;;;;;;;32.58;15.68;;;-5.30;99.90;;;;;;5013157;28;20042;-77
2024/01/10 06:48:47;;;;;;;33.95;15.55;;;-5.30;99.90;;;;;;4998820;28;20069;-76
2024/01/10 06:51:15;;;;;;;29.35;15.95;;;-5.30;99.90;;;;;;5013545;28;20148;-76
2024/01/10 06:53:41;;;;;;;37.20;15.98;;;-5.30;99.90;;;;;;5029001;28;20096;-76
2024/01/10 06:56:09;;;;;;;33.47;15.32;;;-5.30;99.90;;;;;;5012992;28;20042;-77
2024/01/10 06:58:36;;;;;;;36.38;16.05;;;-5.30;99.90;;;;;;5003191;28;20065;-76
2024/01/10 07:01:06;;;;;;;31.88;15.43;;;-5.30;99.90;;;;;;5012976;28;20069;-76
2024/01/10 07:03:34;;;;;;;36.22;15.27;;;-4.60;99.90;;;;;;4981648;28;20053;-76
2024/01/10 07:06:01;;;;;;;35.83;15.50;;;-5.20;99.90;;;;;;5008919;28;20120;-77
2024/01/10 07:08:27;;;;;;;32.92;15.05;;;-5.20;99.90;;;;;;4999938;28;20122;-77
2024/01/10 07:10:55;;;;;;;44.78;14.80;;;-5.20;99.90;;;;;;4988620;28;20046;-76
2024/01/10 07:13:22;;;;;;;35.03;15.27;;;-4.30;99.90;;;;;;5002403;28;20422;-76
2024/01/10 07:15:50;;;;;;;37.13;16.38;;;-5.20;99.90;;;;;;5012539;28;20030;-77
2024/01/10 07:18:17;;;;;;;46.65;16.48;;;-5.20;99.90;;;;;;5041841;28;20499;-76
2024/01/10 07:20:44;;;;;;;42.30;15.38;;;-5.20;99.90;;;;;;4995419;28;20074;-76
2024/01/10 07:23:10;;;;;;;34.47;14.73;;;-5.30;99.90;;;;;;4994130;28;20042;-76
2024/01/10 07:25:37;;;;;;;33.50;14.30;;;-5.20;99.90;;;;;;5028829;28;20459;-76
2024/01/10 07:28:04;;;;;;;36.00;14.73;;;-5.30;99.90;;;;;;4998644;28;20104;-77
2024/01/10 07:30:32;;;;;;;49.25;17.63;;;-5.20;99.90;;;;;;5013218;28;20040;-76
2024/01/10 07:32:59;;;;;;;35.40;13.40;;;-5.30;99.90;;;;;;4996253;28;20484;-76
2024/01/10 07:35:27;;;;;;;33.22;13.65;;;-5.30;99.90;;;;;;5021389;28;20038;-76
2024/01/10 07:37:54;;;;;;;34.97;13.18;;;-5.30;99.90;;;;;;5031028;28;20046;-76
2024/01/10 07:40:20;;;;;;;34.30;14.15;;;-5.30;99.90;;;;;;4993238;28;20049;-76
2024/01/10 07:42:47;;;;;;;31.33;12.55;;;-5.30;99.90;;;;;;4984226;28;20073;-76
2024/01/10 07:45:14;;;;;;;31.58;13.02;;;-5.20;99.90;;;;;;4996701;28;20046;-76
2024/01/10 07:47:40;;;;;;;29.92;12.45;;;-5.30;99.90;;;;;;5015335;28;20049;-76
2024/01/10 07:50:08;;;;;;;32.72;13.05;;;-5.20;99.90;;;;;;5003574;28;20060;-76
2024/01/10 07:52:35;;;;;;;32.58;13.40;;;-5.30;99.90;;;;;;5001929;28;20152;-76
2024/01/10 07:55:04;;;;;;;31.52;13.52;;;-6.10;99.90;;;;;;5012516;28;20438;-76
2024/01/10 07:57:32;;;;;;;31.63;12.27;;;-5.20;99.90;;;;;;4999628;28;20042;-76
2024/01/10 07:59:58;;;;;;;31.85;11.85;;;-5.30;99.90;;;;;;5002877;28;20050;-76
2024/01/10 08:02:25;;;;;;;36.65;13.85;;;-5.30;99.90;;;;;;5012052;28;20043;-76
2024/01/10 08:04:53;;;;;;;32.33;12.02;;;-5.30;99.90;;;;;;5004141;28;20054;-76
2024/01/10 08:07:20;;;;;;;28.02;11.50;;;-5.30;99.90;;;;;;5002248;28;20081;-76
2024/01/10 08:09:46;;;;;;;32.78;13.00;;;-5.30;99.90;;;;;;5010791;28;20066;-76
2024/01/10 08:12:13;;;;;;;32.30;12.43;;;-5.30;99.90;;;;;;5017511;28;20104;-76
2024/01/10 08:14:40;;;;;;;37.33;12.10;;;-5.20;99.90;;;;;;5013952;28;20048;-76
2024/01/10 08:17:08;;;;;;;30.02;11.77;;;-5.20;99.90;;;;;;5001635;28;20451;-76
2024/01/10 08:19:35;;;;;;;35.22;13.52;;;-5.20;99.90;;;;;;5007768;28;20041;-76
2024/01/10 08:22:02;;;;;;;32.20;11.88;;;-5.20;99.90;;;;;;5028103;28;20470;-76
2024/01/10 08:24:29;;;;;;;34.67;11.85;;;-5.20;99.90;;;;;;5014464;28;20105;-76
2024/01/10 08:26:55;;;;;;;33.20;12.63;;;-5.20;99.90;;;;;;4997215;28;20057;-76
2024/01/10 08:29:22;;;;;;;32.00;11.63;;;-5.20;99.90;;;;;;5004210;28;20518;-76
2024/01/10 08:31:49;;;;;;;34.05;12.35;;;-5.10;99.90;;;;;;5011074;28;20569;-77
2024/01/10 08:34:15;;;;;;;30.45;11.57;;;-5.10;99.90;;;;;;5014727;28;20121;-76
2024/01/10 08:36:42;;;;;;;32.88;12.23;;;-5.10;99.90;;;;;;4998849;28;20471;-76
2024/01/10 08:39:10;;;;;;;28.73;10.90;;;-5.10;99.90;;;;;;5003985;28;20125;-77
2024/01/10 08:41:42;;;;;;;28.50;11.73;;;-5.10;99.90;;;;;;5020176;28;20490;-76
2024/01/10 08:44:09;;;;;;;26.67;10.98;;;-5.10;99.90;;;;;;5000273;28;20053;-76
2024/01/10 08:46:36;;;;;;;31.13;11.98;;;-5.00;99.90;;;;;;4999051;28;20046;-76
2024/01/10 08:49:03;;;;;;;30.10;10.23;;;-5.00;99.90;;;;;;5014921;28;22350;-76
2024/01/10 08:51:30;;;;;;;32.42;12.85;;;-4.90;99.90;;;;;;5013183;28;20099;-76
2024/01/10 08:53:57;;;;;;;38.53;12.55;;;-4.90;99.90;;;;;;4997255;28;20045;-76
2024/01/10 08:56:26;;;;;;;30.77;12.07;;;-4.90;99.90;;;;;;5027809;28;20834;-76
2024/01/10 08:58:53;;;;;;;27.92;10.63;;;-4.80;99.90;;;;;;4990175;28;20509;-76
2024/01/10 09:01:19;;;;;;;30.15;11.40;;;-4.80;99.90;;;;;;4991661;28;20042;-76
2024/01/10 09:03:46;;;;;;;29.73;10.27;;;-4.80;99.90;;;;;;5019503;28;20569;-76
2024/01/10 09:06:13;;;;;;;29.70;10.20;;;-4.70;99.90;;;;;;5005283;28;20125;-76
2024/01/10 09:08:40;;;;;;;24.83;9.73;;;-4.70;99.90;;;;;;5013998;28;20034;-76
2024/01/10 09:11:07;;;;;;;31.42;11.35;;;-4.70;99.90;;;;;;5012348;28;20046;-76
2024/01/10 09:13:34;;;;;;;24.60;9.88;;;-4.60;99.90;;;;;;5011244;28;20053;-76
2024/01/10 09:16:01;;;;;;;32.47;11.15;;;-4.60;99.90;;;;;;5011638;28;20038;-76
2024/01/10 09:18:27;;;;;;;24.10;10.00;;;-4.00;99.90;;;;;;5012110;28;20037;-76
2024/01/10 09:20:54;;;;;;;29.63;10.40;;;-4.50;99.90;;;;;;5015451;28;20030;-77
2024/01/10 09:23:23;;;;;;;25.63;10.35;;;-4.50;99.90;;;;;;5011553;28;20072;-76
2024/01/10 09:25:50;;;;;;;29.27;10.40;;;-4.40;99.90;;;;;;5008912;28;20039;-76
2024/01/10 09:28:16;;;;;;;29.75;10.63;;;-4.40;99.90;;;;;;4987519;28;20627;-76
2024/01/10 09:30:43;;;;;;;24.77;10.65;;;-4.40;99.90;;;;;;5014509;28;20053;-76
2024/01/10 09:33:10;;;;;;;28.33;10.80;;;-4.30;99.90;;;;;;4993872;28;20038;-76
2024/01/10 09:35:36;;;;;;;28.13;10.05;;;-4.30;99.90;;;;;;5014442;28;20521;-76
2024/01/10 09:38:03;;;;;;;28.15;10.18;;;-4.20;99.90;;;;;;5016108;28;20457;-76
2024/01/10 09:40:30;;;;;;;26.63;10.43;;;-3.90;99.90;;;;;;5016136;28;20125;-76
2024/01/10 09:42:57;;;;;;;29.50;9.90;;;-4.20;99.90;;;;;;4998541;28;20046;-76
2024/01/10 09:45:25;;;;;;;25.92;10.38;;;-4.10;99.90;;;;;;4989001;28;20129;-76
2024/01/10 09:47:56;;;;;;;26.88;10.57;;;-4.00;99.90;;;;;;5018101;28;20487;-76
2024/01/10 09:50:25;;;;;;;27.00;10.57;;;-4.00;99.90;;;;;;4988642;28;20058;-76
2024/01/10 09:52:53;;;;;;;28.08;10.27;;;-4.00;99.90;;;;;;5017199;28;20050;-76
2024/01/10 09:55:22;;;;;;;23.38;9.90;;;-3.90;99.90;;;;;;5009849;28;20101;-75
2024/01/10 09:57:49;;;;;;;25.85;9.77;;;-3.80;99.90;;;;;;5020089;28;20043;-75
2024/01/10 10:00:16;;;;;;;22.10;9.23;;;-3.80;99.90;;;;;;5000684;28;20373;-76
2024/01/10 10:02:46;;;;;;;24.00;9.25;;;-3.80;99.90;;;;;;5027988;28;20061;-76
2024/01/10 10:05:17;;;;;;;21.25;9.45;;;-3.70;99.90;;;;;;4997484;28;20053;-76
2024/01/10 10:07:44;;;;;;;22.25;9.02;;;-3.60;99.90;;;;;;5016128;28;20370;-76
2024/01/10 10:10:15;;;;;;;22.63;8.88;;;-3.60;99.90;;;;;;4998352;28;20782;-76
2024/01/10 10:12:52;;;;;;;26.48;8.88;;;-3.60;99.90;;;;;;5024154;28;20046;-76
2024/01/10 10:15:26;;;;;;;28.20;8.52;;;-3.50;99.90;;;;;;5015167;28;20046;-76
2024/01/10 10:17:53;;;;;;;23.23;8.80;;;-3.50;99.90;;;;;;5017532;28;20050;-76
2024/01/10 10:20:32;;;;;;;23.95;8.57;;;-3.40;99.90;;;;;;4995261;28;20038;-76
2024/01/10 10:23:04;;;;;;;20.48;8.10;;;-3.40;99.90;;;;;;5009321;28;20088;-76
2024/01/10 10:25:35;;;;;;;20.73;7.82;;;-3.30;99.90;;;;;;5019639;28;20041;-76
2024/01/10 10:28:03;;;;;;;19.92;7.93;;;-3.30;99.90;;;;;;4991687;28;20089;-80
2024/01/10 10:30:33;;;;;;;16.98;7.45;;;-3.20;99.90;;;;;;5038867;28;20053;-77
2024/01/10 10:33:03;;;;;;;19.67;7.82;;;-3.20;99.90;;;;;;5020306;28;20039;-78
2024/01/10 10:35:30;;;;;;;19.73;7.55;;;-3.10;99.90;;;;;;5010952;28;20038;-76
2024/01/10 10:37:58;;;;;;;20.70;8.68;;;-3.10;99.90;;;;;;5020287;28;20045;-76
2024/01/10 10:40:25;;;;;;;19.70;7.45;;;-3.10;99.90;;;;;;5008502;28;20491;-76
2024/01/10 10:42:58;;;;;;;20.52;8.57;;;-3.00;99.90;;;;;;4992328;28;20038;-76
2024/01/10 10:45:26;;;;;;;23.33;8.55;;;-3.00;99.90;;;;;;4990659;28;20049;-76
2024/01/10 10:48:01;;;;;;;20.35;8.70;;;-3.00;99.90;;;;;;4984143;28;20064;-77
2024/01/10 10:50:36;;;;;;;16.83;7.15;;;-3.00;99.90;;;;;;4997530;28;20479;-77
2024/01/10 10:53:03;;;;;;;18.38;7.68;;;-3.00;99.90;;;;;;4997351;28;20069;-76
2024/01/10 10:55:33;;;;;;;18.02;7.53;;;-2.90;99.90;;;;;;5009911;28;20049;-76
2024/01/10 10:58:04;;;;;;;20.80;7.65;;;-2.90;99.90;;;;;;5013343;28;20077;-76
2024/01/10 11:00:32;;;;;;;21.48;9.02;;;-2.90;99.90;;;;;;4989585;28;20496;-76
2024/01/10 11:02:59;;;;;;;20.45;8.02;;;-2.80;99.90;;;;;;5015204;28;20044;-76
2024/01/10 11:05:27;;;;;;;20.10;7.82;;;-2.80;99.90;;;;;;5029027;28;20051;-76
2024/01/10 11:07:54;;;;;;;22.05;8.27;;;-2.80;99.90;;;;;;4999342;28;20038;-76
2024/01/10 11:10:30;;;;;;;20.27;9.25;;;-2.70;99.90;;;;;;5024082;28;20547;-76
2024/01/10 11:13:14;;;;;;;19.88;8.25;;;-2.70;99.90;;;;;;4996660;28;20109;-76
2024/01/10 11:16:13;;;;;;;16.63;8.18;;;-2.70;99.90;;;;;;5023400;28;20040;-76
2024/01/10 11:19:04;;;;;;;20.15;8.15;;;-2.20;99.90;;;;;;5024622;28;20045;-76
2024/01/10 11:22:15;;;;;;;23.83;8.10;;;-2.60;99.90;;;;;;5009557;28;20388;-76
2024/01/10 11:24:42;;;;;;;19.42;8.57;;;-2.50;99.90;;;;;;5000582;28;20044;-76
2024/01/10 11:27:12;;;;;;;21.55;8.48;;;-1.50;99.90;;;;;;5018524;28;20039;-76
2024/01/10 11:29:40;;;;;;;17.52;8.48;;;-2.40;99.90;;;;;;5023045;28;20109;-77
2024/01/10 11:32:12;;;;;;;18.48;8.05;;;-2.40;99.90;;;;;;4994702;28;20487;-76
2024/01/10 11:34:49;;;;;;;20.20;7.88;;;-2.40;99.90;;;;;;5000947;28;20089;-77
2024/01/10 11:37:16;;;;;;;20.75;7.63;;;-2.30;99.90;;;;;;5016983;28;20042;-76
2024/01/10 11:39:44;;;;;;;18.05;7.60;;;-2.30;99.90;;;;;;5006138;28;20039;-77
2024/01/10 11:42:10;;;;;;;19.60;7.78;;;-2.30;99.90;;;;;;5022625;28;20085;-76
2024/01/10 11:44:51;;;;;;;20.80;7.57;;;-2.30;99.90;;;;;;4989094;28;20562;-77
2024/01/10 11:47:19;;;;;;;21.73;8.05;;;-2.30;99.90;;;;;;5028129;28;20165;-76
2024/01/10 11:49:58;;;;;;;18.10;7.53;;;-2.30;99.90;;;;;;4996030;28;20742;-77
2024/01/10 11:52:33;;;;;;;15.30;6.97;;;-2.20;99.90;;;;;;5012200;28;20046;-76
2024/01/10 11:55:00;;;;;;;21.17;7.87;;;-2.20;99.90;;;;;;5007935;28;20546;-76
2024/01/10 11:57:28;;;;;;;16.95;7.63;;;-2.20;99.90;;;;;;4999052;28;20368;-77
2024/01/10 11:59:56;;;;;;;16.73;7.25;;;-2.20;99.90;;;;;;5015872;28;20613;-77
2024/01/10 12:02:25;;;;;;;19.20;6.88;;;-2.10;99.90;;;;;;5003237;28;20030;-77
2024/01/10 12:04:52;;;;;;;17.83;7.85;;;-1.10;99.90;;;;;;5001235;28;20053;-77
2024/01/10 12:07:19;;;;;;;16.88;7.70;;;-2.10;99.90;;;;;;5024504;28;20041;-76
2024/01/10 12:09:46;;;;;;;16.67;7.00;;;-2.00;99.90;;;;;;4999087;28;20073;-78
2024/01/10 12:12:14;;;;;;;16.70;7.30;;;-2.00;99.90;;;;;;5008993;28;20455;-77
2024/01/10 12:14:41;;;;;;;16.90;7.50;;;-2.00;99.90;;;;;;4998801;28;20049;-76
2024/01/10 12:17:08;;;;;;;16.08;7.22;;;-2.00;99.90;;;;;;5012266;28;20533;-77
2024/01/10 12:19:36;;;;;;;20.77;7.00;;;-2.00;99.90;;;;;;5007216;28;20095;-77
2024/01/10 12:22:07;;;;;;;16.80;7.07;;;-1.90;99.90;;;;;;4986105;28;20104;-77
2024/01/10 12:24:38;;;;;;;23.05;8.38;;;-1.90;99.90;;;;;;4992759;28;20053;-77
2024/01/10 12:27:05;;;;;;;22.73;8.93;;;-1.90;99.90;;;;;;4997437;28;20042;-76
2024/01/10 12:29:32;;;;;;;19.98;8.30;;;-1.90;99.90;;;;;;5006282;28;20050;-77
2024/01/10 12:31:59;;;;;;;29.08;9.35;;;-1.90;99.90;;;;;;4995496;28;20093;-77